sensor_id;sensor_type;location;lat;lon;timestamp;P1;durP1;ratioP1;P2;durP2;ratioP2
54139;SDS011;40046;53.254;5.900;2023-05-07T00:00:11;24.73;;;22.23;;
54139;SDS011;40046;53.254;5.900;2023-05-07T00:02:40;23.92;;;21.17;;
54139;SDS011;40046;53.254;5.900;2023-05-07T00:05:06;27.52;;;22.17;;
54139;SDS011;40046;53.254;5.900;2023-05-07T00:07:33;24.80;;;21.50;;
54139;SDS011;40046;53.254;5.900;2023-05-07T00:09:59;24.17;;;20.95;;
54139;SDS011;40046;53.254;5.900;2023-05-07T00:12:25;24.95;;;21.70;;
54139;SDS011;40046;53.254;5.900;2023-05-07T00:14:52;24.27;;;21.63;;
54139;SDS011;40046;53.254;5.900;2023-05-07T00:17:18;25.10;;;22.00;;
54139;SDS011;40046;53.254;5.900;2023-05-07T00:19:44;26.60;;;23.02;;
54139;SDS011;40046;53.254;5.900;2023-05-07T00:22:11;25.30;;;22.52;;
54139;SDS011;40046;53.254;5.900;2023-05-07T00:24:37;28.13;;;23.08;;
54139;SDS011;40046;53.254;5.900;2023-05-07T00:27:03;27.80;;;23.33;;
54139;SDS011;40046;53.254;5.900;2023-05-07T00:29:30;32.20;;;24.55;;
54139;SDS011;40046;53.254;5.900;2023-05-07T00:31:56;31.52;;;22.30;;
54139;SDS011;40046;53.254;5.900;2023-05-07T00:34:22;26.27;;;23.48;;
54139;SDS011;40046;53.254;5.900;2023-05-07T00:36:49;25.13;;;22.38;;
54139;SDS011;40046;53.254;5.900;2023-05-07T00:39:15;25.60;;;23.00;;
54139;SDS011;40046;53.254;5.900;2023-05-07T00:41:41;25.13;;;22.52;;
54139;SDS011;40046;53.254;5.900;2023-05-07T00:44:07;32.05;;;23.52;;
54139;SDS011;40046;53.254;5.900;2023-05-07T00:46:33;30.55;;;23.15;;
54139;SDS011;40046;53.254;5.900;2023-05-07T00:49:00;26.50;;;22.42;;
54139;SDS011;40046;53.254;5.900;2023-05-07T00:51:26;26.20;;;22.67;;
54139;SDS011;40046;53.254;5.900;2023-05-07T00:53:53;27.63;;;22.88;;
54139;SDS011;40046;53.254;5.900;2023-05-07T00:56:22;25.83;;;21.85;;
54139;SDS011;40046;53.254;5.900;2023-05-07T00:58:49;26.55;;;23.35;;
54139;SDS011;40046;53.254;5.900;2023-05-07T01:01:15;29.25;;;24.00;;
54139;SDS011;40046;53.254;5.900;2023-05-07T01:03:42;27.15;;;23.08;;
54139;SDS011;40046;53.254;5.900;2023-05-07T01:06:08;26.60;;;23.58;;
54139;SDS011;40046;53.254;5.900;2023-05-07T01:08:37;27.90;;;23.55;;
54139;SDS011;40046;53.254;5.900;2023-05-07T01:11:05;26.55;;;22.52;;
54139;SDS011;40046;53.254;5.900;2023-05-07T01:13:32;30.10;;;24.85;;
54139;SDS011;40046;53.254;5.900;2023-05-07T01:16:00;28.92;;;23.80;;
54139;SDS011;40046;53.254;5.900;2023-05-07T01:18:26;26.65;;;23.00;;
54139;SDS011;40046;53.254;5.900;2023-05-07T01:20:55;30.15;;;25.55;;
54139;SDS011;40046;53.254;5.900;2023-05-07T01:23:24;29.17;;;25.75;;
54139;SDS011;40046;53.254;5.900;2023-05-07T01:25:51;30.38;;;24.90;;
54139;SDS011;40046;53.254;5.900;2023-05-07T01:28:19;26.88;;;24.13;;
54139;SDS011;40046;53.254;5.900;2023-05-07T01:30:50;30.00;;;24.83;;
54139;SDS011;40046;53.254;5.900;2023-05-07T01:33:18;33.35;;;25.63;;
54139;SDS011;40046;53.254;5.900;2023-05-07T01:35:45;30.67;;;24.90;;
54139;SDS011;40046;53.254;5.900;2023-05-07T01:38:13;28.40;;;24.95;;
54139;SDS011;40046;53.254;5.900;2023-05-07T01:40:39;28.15;;;25.15;;
54139;SDS011;40046;53.254;5.900;2023-05-07T01:43:05;28.40;;;25.40;;
54139;SDS011;40046;53.254;5.900;2023-05-07T01:45:33;29.00;;;25.60;;
54139;SDS011;40046;53.254;5.900;2023-05-07T01:47:59;26.67;;;23.70;;
54139;SDS011;40046;53.254;5.900;2023-05-07T01:50:26;27.90;;;23.77;;
54139;SDS011;40046;53.254;5.900;2023-05-07T01:52:53;29.63;;;25.70;;
54139;SDS011;40046;53.254;5.900;2023-05-07T01:55:19;30.85;;;25.98;;
54139;SDS011;40046;53.254;5.900;2023-05-07T01:57:45;29.50;;;24.58;;
54139;SDS011;40046;53.254;5.900;2023-05-07T02:00:11;29.80;;;25.00;;
54139;SDS011;40046;53.254;5.900;2023-05-07T02:02:43;29.13;;;25.83;;
54139;SDS011;40046;53.254;5.900;2023-05-07T02:05:22;32.28;;;24.67;;
54139;SDS011;40046;53.254;5.900;2023-05-07T02:07:55;26.88;;;24.10;;
54139;SDS011;40046;53.254;5.900;2023-05-07T02:10:23;30.02;;;26.05;;
54139;SDS011;40046;53.254;5.900;2023-05-07T02:12:49;29.77;;;25.35;;
54139;SDS011;40046;53.254;5.900;2023-05-07T02:15:16;27.90;;;25.00;;
54139;SDS011;40046;53.254;5.900;2023-05-07T02:18:01;30.58;;;27.27;;
54139;SDS011;40046;53.254;5.900;2023-05-07T02:20:28;30.70;;;26.88;;
54139;SDS011;40046;53.254;5.900;2023-05-07T02:22:54;31.42;;;26.58;;
54139;SDS011;40046;53.254;5.900;2023-05-07T02:25:20;30.83;;;27.48;;
54139;SDS011;40046;53.254;5.900;2023-05-07T02:27:46;28.77;;;25.67;;
54139;SDS011;40046;53.254;5.900;2023-05-07T02:30:13;45.08;;;29.20;;
54139;SDS011;40046;53.254;5.900;2023-05-07T02:32:40;30.13;;;27.05;;
54139;SDS011;40046;53.254;5.900;2023-05-07T02:35:06;29.88;;;25.17;;
54139;SDS011;40046;53.254;5.900;2023-05-07T02:37:33;28.35;;;25.38;;
54139;SDS011;40046;53.254;5.900;2023-05-07T02:39:59;29.20;;;25.95;;
54139;SDS011;40046;53.254;5.900;2023-05-07T02:42:26;30.95;;;26.25;;
54139;SDS011;40046;53.254;5.900;2023-05-07T02:44:52;32.28;;;25.35;;
54139;SDS011;40046;53.254;5.900;2023-05-07T02:47:18;29.15;;;25.88;;
54139;SDS011;40046;53.254;5.900;2023-05-07T02:49:45;28.90;;;24.65;;
54139;SDS011;40046;53.254;5.900;2023-05-07T02:52:12;27.80;;;24.70;;
54139;SDS011;40046;53.254;5.900;2023-05-07T02:54:38;29.40;;;25.10;;
54139;SDS011;40046;53.254;5.900;2023-05-07T02:57:04;27.40;;;24.40;;
54139;SDS011;40046;53.254;5.900;2023-05-07T02:59:30;34.15;;;25.77;;
54139;SDS011;40046;53.254;5.900;2023-05-07T03:01:57;28.25;;;25.25;;
54139;SDS011;40046;53.254;5.900;2023-05-07T03:04:23;27.13;;;24.23;;
54139;SDS011;40046;53.254;5.900;2023-05-07T03:06:49;28.83;;;25.40;;
54139;SDS011;40046;53.254;5.900;2023-05-07T03:09:15;26.75;;;23.98;;
54139;SDS011;40046;53.254;5.900;2023-05-07T03:11:42;27.67;;;24.83;;
54139;SDS011;40046;53.254;5.900;2023-05-07T03:14:08;27.90;;;24.55;;
54139;SDS011;40046;53.254;5.900;2023-05-07T03:16:35;27.23;;;24.17;;
54139;SDS011;40046;53.254;5.900;2023-05-07T03:19:01;27.45;;;24.25;;
54139;SDS011;40046;53.254;5.900;2023-05-07T03:21:28;30.05;;;24.90;;
54139;SDS011;40046;53.254;5.900;2023-05-07T03:23:54;31.13;;;25.20;;
54139;SDS011;40046;53.254;5.900;2023-05-07T03:26:21;29.20;;;25.77;;
54139;SDS011;40046;53.254;5.900;2023-05-07T03:28:47;27.80;;;24.45;;
54139;SDS011;40046;53.254;5.900;2023-05-07T03:31:15;32.03;;;26.80;;
54139;SDS011;40046;53.254;5.900;2023-05-07T03:36:17;31.00;;;25.33;;
54139;SDS011;40046;53.254;5.900;2023-05-07T03:38:44;29.85;;;26.60;;
54139;SDS011;40046;53.254;5.900;2023-05-07T03:41:11;31.65;;;25.85;;
54139;SDS011;40046;53.254;5.900;2023-05-07T03:43:37;35.38;;;26.13;;
54139;SDS011;40046;53.254;5.900;2023-05-07T03:46:08;30.83;;;26.52;;
54139;SDS011;40046;53.254;5.900;2023-05-07T03:48:34;31.95;;;27.23;;
54139;SDS011;40046;53.254;5.900;2023-05-07T03:51:01;32.03;;;27.80;;
54139;SDS011;40046;53.254;5.900;2023-05-07T03:53:31;32.05;;;27.50;;
54139;SDS011;40046;53.254;5.900;2023-05-07T03:55:57;35.53;;;29.33;;
54139;SDS011;40046;53.254;5.900;2023-05-07T03:58:23;31.83;;;26.98;;
54139;SDS011;40046;53.254;5.900;2023-05-07T04:00:50;38.35;;;27.67;;
54139;SDS011;40046;53.254;5.900;2023-05-07T04:03:22;32.90;;;27.60;;
54139;SDS011;40046;53.254;5.900;2023-05-07T04:05:49;33.33;;;28.67;;
54139;SDS011;40046;53.254;5.900;2023-05-07T04:08:15;31.92;;;28.52;;
54139;SDS011;40046;53.254;5.900;2023-05-07T04:10:45;36.88;;;28.15;;
54139;SDS011;40046;53.254;5.900;2023-05-07T04:13:12;35.85;;;28.50;;
54139;SDS011;40046;53.254;5.900;2023-05-07T04:15:38;37.72;;;30.23;;
54139;SDS011;40046;53.254;5.900;2023-05-07T04:18:08;34.33;;;30.17;;
54139;SDS011;40046;53.254;5.900;2023-05-07T04:20:36;37.42;;;28.75;;
54139;SDS011;40046;53.254;5.900;2023-05-07T04:23:03;34.55;;;29.65;;
54139;SDS011;40046;53.254;5.900;2023-05-07T04:25:31;38.90;;;32.60;;
54139;SDS011;40046;53.254;5.900;2023-05-07T04:28:05;42.85;;;31.88;;
54139;SDS011;40046;53.254;5.900;2023-05-07T04:30:31;36.33;;;29.67;;
54139;SDS011;40046;53.254;5.900;2023-05-07T04:32:57;39.90;;;31.10;;
54139;SDS011;40046;53.254;5.900;2023-05-07T04:35:26;45.03;;;32.22;;
54139;SDS011;40046;53.254;5.900;2023-05-07T04:37:53;39.10;;;31.33;;
54139;SDS011;40046;53.254;5.900;2023-05-07T04:40:19;43.17;;;33.00;;
54139;SDS011;40046;53.254;5.900;2023-05-07T04:42:45;40.00;;;32.20;;
54139;SDS011;40046;53.254;5.900;2023-05-07T04:45:12;41.63;;;30.88;;
54139;SDS011;40046;53.254;5.900;2023-05-07T04:47:40;38.83;;;31.55;;
54139;SDS011;40046;53.254;5.900;2023-05-07T04:50:07;38.63;;;30.30;;
54139;SDS011;40046;53.254;5.900;2023-05-07T04:52:34;39.03;;;30.90;;
54139;SDS011;40046;53.254;5.900;2023-05-07T04:55:01;41.47;;;32.35;;
54139;SDS011;40046;53.254;5.900;2023-05-07T04:57:32;40.40;;;32.67;;
54139;SDS011;40046;53.254;5.900;2023-05-07T04:59:58;39.40;;;31.02;;
54139;SDS011;40046;53.254;5.900;2023-05-07T05:02:25;39.80;;;33.15;;
54139;SDS011;40046;53.254;5.900;2023-05-07T05:04:51;43.97;;;31.70;;
54139;SDS011;40046;53.254;5.900;2023-05-07T05:07:17;37.85;;;30.13;;
54139;SDS011;40046;53.254;5.900;2023-05-07T05:09:44;41.08;;;33.80;;
54139;SDS011;40046;53.254;5.900;2023-05-07T05:12:10;41.15;;;33.22;;
54139;SDS011;40046;53.254;5.900;2023-05-07T05:14:37;44.78;;;35.55;;
54139;SDS011;40046;53.254;5.900;2023-05-07T05:17:04;42.15;;;32.30;;
54139;SDS011;40046;53.254;5.900;2023-05-07T05:19:30;39.97;;;32.53;;
54139;SDS011;40046;53.254;5.900;2023-05-07T05:21:56;37.40;;;30.35;;
54139;SDS011;40046;53.254;5.900;2023-05-07T05:24:22;42.00;;;32.55;;
54139;SDS011;40046;53.254;5.900;2023-05-07T05:26:48;40.00;;;33.35;;
54139;SDS011;40046;53.254;5.900;2023-05-07T05:29:15;40.25;;;33.33;;
54139;SDS011;40046;53.254;5.900;2023-05-07T05:31:41;40.85;;;32.55;;
54139;SDS011;40046;53.254;5.900;2023-05-07T05:34:07;39.92;;;32.13;;
54139;SDS011;40046;53.254;5.900;2023-05-07T05:36:35;45.63;;;33.85;;
54139;SDS011;40046;53.254;5.900;2023-05-07T05:39:02;43.28;;;32.30;;
54139;SDS011;40046;53.254;5.900;2023-05-07T05:41:28;40.85;;;32.13;;
54139;SDS011;40046;53.254;5.900;2023-05-07T05:43:55;40.00;;;32.45;;
54139;SDS011;40046;53.254;5.900;2023-05-07T05:46:21;40.03;;;31.38;;
54139;SDS011;40046;53.254;5.900;2023-05-07T05:48:49;38.53;;;32.55;;
54139;SDS011;40046;53.254;5.900;2023-05-07T05:51:16;39.88;;;31.42;;
54139;SDS011;40046;53.254;5.900;2023-05-07T05:53:42;37.13;;;31.08;;
54139;SDS011;40046;53.254;5.900;2023-05-07T05:56:08;41.75;;;31.90;;
54139;SDS011;40046;53.254;5.900;2023-05-07T05:58:35;37.53;;;30.20;;
54139;SDS011;40046;53.254;5.900;2023-05-07T06:01:05;36.60;;;29.05;;
54139;SDS011;40046;53.254;5.900;2023-05-07T06:03:34;34.40;;;28.55;;
54139;SDS011;40046;53.254;5.900;2023-05-07T06:06:04;37.25;;;30.50;;
54139;SDS011;40046;53.254;5.900;2023-05-07T06:08:31;36.22;;;31.50;;
54139;SDS011;40046;53.254;5.900;2023-05-07T06:10:58;38.33;;;30.40;;
54139;SDS011;40046;53.254;5.900;2023-05-07T06:13:25;35.03;;;29.38;;
54139;SDS011;40046;53.254;5.900;2023-05-07T06:15:52;36.03;;;30.83;;
54139;SDS011;40046;53.254;5.900;2023-05-07T06:18:19;33.13;;;29.52;;
54139;SDS011;40046;53.254;5.900;2023-05-07T06:20:45;36.22;;;28.58;;
54139;SDS011;40046;53.254;5.900;2023-05-07T06:23:20;33.35;;;28.38;;
54139;SDS011;40046;53.254;5.900;2023-05-07T06:25:50;37.72;;;29.15;;
54139;SDS011;40046;53.254;5.900;2023-05-07T06:28:18;33.83;;;28.65;;
54139;SDS011;40046;53.254;5.900;2023-05-07T06:30:44;37.65;;;29.38;;
54139;SDS011;40046;53.254;5.900;2023-05-07T06:33:11;34.33;;;29.02;;
54139;SDS011;40046;53.254;5.900;2023-05-07T06:35:37;34.92;;;27.85;;
54139;SDS011;40046;53.254;5.900;2023-05-07T06:38:04;34.70;;;30.73;;
54139;SDS011;40046;53.254;5.900;2023-05-07T06:40:31;36.50;;;29.25;;
54139;SDS011;40046;53.254;5.900;2023-05-07T06:42:58;34.78;;;30.38;;
54139;SDS011;40046;53.254;5.900;2023-05-07T06:45:48;32.97;;;27.92;;
54139;SDS011;40046;53.254;5.900;2023-05-07T06:48:14;37.08;;;29.10;;
54139;SDS011;40046;53.254;5.900;2023-05-07T06:50:53;32.95;;;27.45;;
54139;SDS011;40046;53.254;5.900;2023-05-07T06:53:21;34.33;;;28.27;;
54139;SDS011;40046;53.254;5.900;2023-05-07T06:55:49;33.42;;;28.13;;
54139;SDS011;40046;53.254;5.900;2023-05-07T06:58:18;32.13;;;27.02;;
54139;SDS011;40046;53.254;5.900;2023-05-07T07:00:44;32.65;;;28.33;;
54139;SDS011;40046;53.254;5.900;2023-05-07T07:03:11;32.47;;;27.08;;
54139;SDS011;40046;53.254;5.900;2023-05-07T07:05:40;32.47;;;27.33;;
54139;SDS011;40046;53.254;5.900;2023-05-07T07:08:06;31.00;;;27.15;;
54139;SDS011;40046;53.254;5.900;2023-05-07T07:10:32;28.15;;;25.08;;
54139;SDS011;40046;53.254;5.900;2023-05-07T07:12:59;28.48;;;25.15;;
54139;SDS011;40046;53.254;5.900;2023-05-07T07:15:25;32.10;;;25.98;;
54139;SDS011;40046;53.254;5.900;2023-05-07T07:17:53;29.48;;;25.15;;
54139;SDS011;40046;53.254;5.900;2023-05-07T07:20:21;32.13;;;26.98;;
54139;SDS011;40046;53.254;5.900;2023-05-07T07:22:47;30.00;;;24.58;;
54139;SDS011;40046;53.254;5.900;2023-05-07T07:25:15;31.58;;;26.35;;
54139;SDS011;40046;53.254;5.900;2023-05-07T07:27:41;28.88;;;25.15;;
54139;SDS011;40046;53.254;5.900;2023-05-07T07:30:08;28.95;;;25.70;;
54139;SDS011;40046;53.254;5.900;2023-05-07T07:32:37;29.15;;;25.58;;
54139;SDS011;40046;53.254;5.900;2023-05-07T07:35:04;34.92;;;26.10;;
54139;SDS011;40046;53.254;5.900;2023-05-07T07:37:31;33.55;;;24.58;;
54139;SDS011;40046;53.254;5.900;2023-05-07T07:39:57;27.67;;;24.70;;
54139;SDS011;40046;53.254;5.900;2023-05-07T07:42:24;25.65;;;22.60;;
54139;SDS011;40046;53.254;5.900;2023-05-07T07:44:50;26.13;;;23.05;;
54139;SDS011;40046;53.254;5.900;2023-05-07T07:47:20;26.02;;;23.23;;
54139;SDS011;40046;53.254;5.900;2023-05-07T07:49:48;26.60;;;23.52;;
54139;SDS011;40046;53.254;5.900;2023-05-07T07:52:14;26.83;;;23.65;;
54139;SDS011;40046;53.254;5.900;2023-05-07T07:54:43;26.48;;;23.67;;
54139;SDS011;40046;53.254;5.900;2023-05-07T07:57:09;27.45;;;24.58;;
54139;SDS011;40046;53.254;5.900;2023-05-07T07:59:35;27.27;;;22.95;;
54139;SDS011;40046;53.254;5.900;2023-05-07T08:02:02;27.25;;;23.48;;
54139;SDS011;40046;53.254;5.900;2023-05-07T08:04:30;25.85;;;23.15;;
54139;SDS011;40046;53.254;5.900;2023-05-07T08:07:01;26.85;;;23.73;;
54139;SDS011;40046;53.254;5.900;2023-05-07T08:09:30;27.50;;;22.73;;
54139;SDS011;40046;53.254;5.900;2023-05-07T08:11:58;27.20;;;22.45;;
54139;SDS011;40046;53.254;5.900;2023-05-07T08:14:25;25.42;;;22.50;;
54139;SDS011;40046;53.254;5.900;2023-05-07T08:16:53;26.42;;;23.25;;
54139;SDS011;40046;53.254;5.900;2023-05-07T08:19:20;25.80;;;23.02;;
54139;SDS011;40046;53.254;5.900;2023-05-07T08:21:47;27.88;;;24.95;;
54139;SDS011;40046;53.254;5.900;2023-05-07T08:24:15;28.38;;;23.98;;
54139;SDS011;40046;53.254;5.900;2023-05-07T08:26:41;26.15;;;23.38;;
54139;SDS011;40046;53.254;5.900;2023-05-07T08:29:09;25.17;;;22.50;;
54139;SDS011;40046;53.254;5.900;2023-05-07T08:31:35;25.42;;;22.73;;
54139;SDS011;40046;53.254;5.900;2023-05-07T08:34:04;24.30;;;21.73;;
54139;SDS011;40046;53.254;5.900;2023-05-07T08:36:30;25.98;;;23.17;;
54139;SDS011;40046;53.254;5.900;2023-05-07T08:38:56;25.58;;;22.73;;
54139;SDS011;40046;53.254;5.900;2023-05-07T08:41:23;23.52;;;20.98;;
54139;SDS011;40046;53.254;5.900;2023-05-07T08:43:49;26.05;;;23.35;;
54139;SDS011;40046;53.254;5.900;2023-05-07T08:46:20;24.63;;;21.83;;
54139;SDS011;40046;53.254;5.900;2023-05-07T08:48:49;24.65;;;22.23;;
54139;SDS011;40046;53.254;5.900;2023-05-07T08:51:16;23.77;;;21.17;;
54139;SDS011;40046;53.254;5.900;2023-05-07T08:53:43;25.77;;;23.02;;
54139;SDS011;40046;53.254;5.900;2023-05-07T08:56:13;26.25;;;22.70;;
54139;SDS011;40046;53.254;5.900;2023-05-07T08:58:41;27.40;;;22.35;;
54139;SDS011;40046;53.254;5.900;2023-05-07T09:01:08;23.45;;;21.15;;
54139;SDS011;40046;53.254;5.900;2023-05-07T09:03:37;25.92;;;23.13;;
54139;SDS011;40046;53.254;5.900;2023-05-07T09:06:04;24.52;;;21.88;;
54139;SDS011;40046;53.254;5.900;2023-05-07T09:08:32;26.30;;;22.15;;
54139;SDS011;40046;53.254;5.900;2023-05-07T09:11:01;26.42;;;23.70;;
54139;SDS011;40046;53.254;5.900;2023-05-07T09:13:28;25.33;;;22.63;;
54139;SDS011;40046;53.254;5.900;2023-05-07T09:15:55;23.88;;;21.20;;
54139;SDS011;40046;53.254;5.900;2023-05-07T09:18:25;25.15;;;22.45;;
54139;SDS011;40046;53.254;5.900;2023-05-07T09:20:52;26.52;;;23.83;;
54139;SDS011;40046;53.254;5.900;2023-05-07T09:23:20;24.92;;;22.40;;
54139;SDS011;40046;53.254;5.900;2023-05-07T09:25:46;25.90;;;23.20;;
54139;SDS011;40046;53.254;5.900;2023-05-07T09:28:25;25.58;;;22.63;;
54139;SDS011;40046;53.254;5.900;2023-05-07T09:30:51;25.65;;;22.95;;
54139;SDS011;40046;53.254;5.900;2023-05-07T09:33:18;30.75;;;23.83;;
54139;SDS011;40046;53.254;5.900;2023-05-07T09:35:51;25.17;;;22.50;;
54139;SDS011;40046;53.254;5.900;2023-05-07T09:38:18;28.48;;;22.02;;
54139;SDS011;40046;53.254;5.900;2023-05-07T09:40:47;24.52;;;21.90;;
54139;SDS011;40046;53.254;5.900;2023-05-07T09:43:14;25.15;;;22.40;;
54139;SDS011;40046;53.254;5.900;2023-05-07T09:45:50;25.45;;;22.95;;
54139;SDS011;40046;53.254;5.900;2023-05-07T09:48:19;24.85;;;21.55;;
54139;SDS011;40046;53.254;5.900;2023-05-07T09:50:48;25.40;;;22.38;;
54139;SDS011;40046;53.254;5.900;2023-05-07T09:53:17;25.40;;;22.90;;
54139;SDS011;40046;53.254;5.900;2023-05-07T09:55:43;25.73;;;23.20;;
54139;SDS011;40046;53.254;5.900;2023-05-07T09:58:11;26.08;;;23.48;;
54139;SDS011;40046;53.254;5.900;2023-05-07T10:00:39;25.33;;;22.83;;
54139;SDS011;40046;53.254;5.900;2023-05-07T10:03:09;25.15;;;22.58;;
54139;SDS011;40046;53.254;5.900;2023-05-07T10:05:44;23.33;;;20.83;;
54139;SDS011;40046;53.254;5.900;2023-05-07T10:08:13;24.65;;;22.10;;
54139;SDS011;40046;53.254;5.900;2023-05-07T10:10:42;24.98;;;22.42;;
54139;SDS011;40046;53.254;5.900;2023-05-07T10:13:12;26.58;;;23.83;;
54139;SDS011;40046;53.254;5.900;2023-05-07T10:15:43;28.90;;;24.58;;
54139;SDS011;40046;53.254;5.900;2023-05-07T10:18:10;27.50;;;24.60;;
54139;SDS011;40046;53.254;5.900;2023-05-07T10:20:38;25.00;;;22.38;;
54139;SDS011;40046;53.254;5.900;2023-05-07T10:23:07;24.60;;;22.05;;
54139;SDS011;40046;53.254;5.900;2023-05-07T10:25:41;26.73;;;24.05;;
54139;SDS011;40046;53.254;5.900;2023-05-07T10:28:15;26.80;;;24.00;;
54139;SDS011;40046;53.254;5.900;2023-05-07T10:35:55;24.05;;;21.55;;
54139;SDS011;40046;53.254;5.900;2023-05-07T10:38:24;26.83;;;23.90;;
54139;SDS011;40046;53.254;5.900;2023-05-07T10:40:50;25.17;;;22.52;;
54139;SDS011;40046;53.254;5.900;2023-05-07T10:43:17;25.17;;;22.58;;
54139;SDS011;40046;53.254;5.900;2023-05-07T10:46:10;25.17;;;22.25;;
54139;SDS011;40046;53.254;5.900;2023-05-07T10:49:22;25.67;;;23.08;;
54139;SDS011;40046;53.254;5.900;2023-05-07T10:51:23;24.83;;;22.25;;
54139;SDS011;40046;53.254;5.900;2023-05-07T10:56:40;25.55;;;22.83;;
54139;SDS011;40046;53.254;5.900;2023-05-07T11:02:04;22.92;;;20.50;;
54139;SDS011;40046;53.254;5.900;2023-05-07T11:05:18;25.00;;;22.50;;
54139;SDS011;40046;53.254;5.900;2023-05-07T11:11:12;25.15;;;22.60;;
54139;SDS011;40046;53.254;5.900;2023-05-07T11:16:36;24.95;;;22.45;;
54139;SDS011;40046;53.254;5.900;2023-05-07T11:22:27;24.08;;;21.58;;
54139;SDS011;40046;53.254;5.900;2023-05-07T11:25:04;23.77;;;21.27;;
54139;SDS011;40046;53.254;5.900;2023-05-07T11:27:31;24.70;;;22.27;;
54139;SDS011;40046;53.254;5.900;2023-05-07T11:29:58;23.35;;;21.02;;
54139;SDS011;40046;53.254;5.900;2023-05-07T11:32:30;25.00;;;22.50;;
54139;SDS011;40046;53.254;5.900;2023-05-07T11:34:58;24.20;;;21.65;;
54139;SDS011;40046;53.254;5.900;2023-05-07T11:37:25;22.63;;;20.33;;
54139;SDS011;40046;53.254;5.900;2023-05-07T11:40:04;22.75;;;20.42;;
54139;SDS011;40046;53.254;5.900;2023-05-07T11:42:32;22.25;;;19.95;;
54139;SDS011;40046;53.254;5.900;2023-05-07T11:44:59;24.20;;;21.35;;
54139;SDS011;40046;53.254;5.900;2023-05-07T11:47:25;24.70;;;20.73;;
54139;SDS011;40046;53.254;5.900;2023-05-07T11:49:52;23.65;;;21.25;;
54139;SDS011;40046;53.254;5.900;2023-05-07T11:52:19;21.50;;;19.25;;
54139;SDS011;40046;53.254;5.900;2023-05-07T11:54:52;23.98;;;21.50;;
54139;SDS011;40046;53.254;5.900;2023-05-07T11:57:18;22.17;;;20.00;;
54139;SDS011;40046;53.254;5.900;2023-05-07T11:59:45;22.30;;;20.10;;
54139;SDS011;40046;53.254;5.900;2023-05-07T12:02:17;21.10;;;19.00;;
54139;SDS011;40046;53.254;5.900;2023-05-07T12:04:43;23.75;;;19.13;;
54139;SDS011;40046;53.254;5.900;2023-05-07T12:07:13;22.92;;;20.40;;
54139;SDS011;40046;53.254;5.900;2023-05-07T12:09:40;21.73;;;19.52;;
54139;SDS011;40046;53.254;5.900;2023-05-07T12:12:06;20.70;;;18.67;;
54139;SDS011;40046;53.254;5.900;2023-05-07T12:14:32;22.27;;;19.85;;
54139;SDS011;40046;53.254;5.900;2023-05-07T12:17:01;23.10;;;20.80;;
54139;SDS011;40046;53.254;5.900;2023-05-07T12:19:28;22.50;;;20.30;;
54139;SDS011;40046;53.254;5.900;2023-05-07T12:21:55;23.20;;;20.83;;
54139;SDS011;40046;53.254;5.900;2023-05-07T12:24:21;21.60;;;19.25;;
54139;SDS011;40046;53.254;5.900;2023-05-07T12:26:48;21.42;;;19.25;;
54139;SDS011;40046;53.254;5.900;2023-05-07T12:29:14;21.45;;;19.30;;
54139;SDS011;40046;53.254;5.900;2023-05-07T12:31:41;22.83;;;20.58;;
54139;SDS011;40046;53.254;5.900;2023-05-07T12:34:07;24.02;;;21.50;;
54139;SDS011;40046;53.254;5.900;2023-05-07T12:36:40;20.17;;;18.25;;
54139;SDS011;40046;53.254;5.900;2023-05-07T12:39:06;19.07;;;17.13;;
54139;SDS011;40046;53.254;5.900;2023-05-07T12:41:36;20.85;;;18.75;;
54139;SDS011;40046;53.254;5.900;2023-05-07T12:44:18;20.52;;;18.33;;
54139;SDS011;40046;53.254;5.900;2023-05-07T12:46:46;21.38;;;19.15;;
54139;SDS011;40046;53.254;5.900;2023-05-07T12:49:12;21.52;;;19.45;;
54139;SDS011;40046;53.254;5.900;2023-05-07T12:51:38;22.10;;;19.88;;
54139;SDS011;40046;53.254;5.900;2023-05-07T12:54:04;21.48;;;19.25;;
54139;SDS011;40046;53.254;5.900;2023-05-07T12:56:31;21.60;;;19.35;;
54139;SDS011;40046;53.254;5.900;2023-05-07T12:58:57;21.15;;;19.05;;
54139;SDS011;40046;53.254;5.900;2023-05-07T13:01:28;22.23;;;19.65;;
54139;SDS011;40046;53.254;5.900;2023-05-07T13:03:54;22.45;;;20.05;;
54139;SDS011;40046;53.254;5.900;2023-05-07T13:06:21;22.60;;;20.35;;
54139;SDS011;40046;53.254;5.900;2023-05-07T13:08:47;21.35;;;19.30;;
54139;SDS011;40046;53.254;5.900;2023-05-07T13:11:13;22.50;;;20.10;;
54139;SDS011;40046;53.254;5.900;2023-05-07T13:13:39;20.58;;;18.48;;
54139;SDS011;40046;53.254;5.900;2023-05-07T13:16:06;20.38;;;18.30;;
54139;SDS011;40046;53.254;5.900;2023-05-07T13:18:33;20.23;;;18.20;;
54139;SDS011;40046;53.254;5.900;2023-05-07T13:21:00;20.02;;;18.13;;
54139;SDS011;40046;53.254;5.900;2023-05-07T13:23:27;20.33;;;18.10;;
54139;SDS011;40046;53.254;5.900;2023-05-07T13:25:53;18.42;;;16.65;;
54139;SDS011;40046;53.254;5.900;2023-05-07T13:28:20;23.35;;;17.35;;
54139;SDS011;40046;53.254;5.900;2023-05-07T13:30:47;18.95;;;16.95;;
54139;SDS011;40046;53.254;5.900;2023-05-07T13:33:13;19.52;;;17.75;;
54139;SDS011;40046;53.254;5.900;2023-05-07T13:35:41;16.95;;;15.25;;
54139;SDS011;40046;53.254;5.900;2023-05-07T13:38:07;19.65;;;17.75;;
54139;SDS011;40046;53.254;5.900;2023-05-07T13:40:33;20.38;;;18.38;;
54139;SDS011;40046;53.254;5.900;2023-05-07T13:42:59;17.92;;;16.17;;
54139;SDS011;40046;53.254;5.900;2023-05-07T13:45:27;17.92;;;16.13;;
54139;SDS011;40046;53.254;5.900;2023-05-07T13:47:54;19.25;;;17.25;;
54139;SDS011;40046;53.254;5.900;2023-05-07T13:50:21;18.48;;;16.58;;
54139;SDS011;40046;53.254;5.900;2023-05-07T13:52:47;18.10;;;16.40;;
54139;SDS011;40046;53.254;5.900;2023-05-07T13:55:20;27.02;;;17.67;;
54139;SDS011;40046;53.254;5.900;2023-05-07T13:57:46;18.25;;;16.55;;
54139;SDS011;40046;53.254;5.900;2023-05-07T14:00:13;17.88;;;16.02;;
54139;SDS011;40046;53.254;5.900;2023-05-07T14:02:42;18.85;;;16.90;;
54139;SDS011;40046;53.254;5.900;2023-05-07T14:05:08;18.45;;;16.65;;
54139;SDS011;40046;53.254;5.900;2023-05-07T14:07:35;18.13;;;16.27;;
54139;SDS011;40046;53.254;5.900;2023-05-07T14:10:01;18.83;;;16.98;;
54139;SDS011;40046;53.254;5.900;2023-05-07T14:12:28;18.35;;;16.50;;
54139;SDS011;40046;53.254;5.900;2023-05-07T14:14:54;19.92;;;17.85;;
54139;SDS011;40046;53.254;5.900;2023-05-07T14:17:21;18.25;;;16.65;;
54139;SDS011;40046;53.254;5.900;2023-05-07T14:19:50;17.42;;;15.73;;
54139;SDS011;40046;53.254;5.900;2023-05-07T14:22:19;17.60;;;15.90;;
54139;SDS011;40046;53.254;5.900;2023-05-07T14:24:45;18.17;;;16.45;;
54139;SDS011;40046;53.254;5.900;2023-05-07T14:27:11;18.65;;;16.83;;
54139;SDS011;40046;53.254;5.900;2023-05-07T14:29:38;19.17;;;17.33;;
54139;SDS011;40046;53.254;5.900;2023-05-07T14:32:04;18.50;;;16.77;;
54139;SDS011;40046;53.254;5.900;2023-05-07T14:34:30;19.00;;;16.83;;
54139;SDS011;40046;53.254;5.900;2023-05-07T14:36:57;18.67;;;16.85;;
54139;SDS011;40046;53.254;5.900;2023-05-07T14:39:23;17.52;;;15.88;;
54139;SDS011;40046;53.254;5.900;2023-05-07T14:41:50;18.50;;;16.70;;
54139;SDS011;40046;53.254;5.900;2023-05-07T14:44:16;20.13;;;17.85;;
54139;SDS011;40046;53.254;5.900;2023-05-07T14:46:43;18.17;;;16.27;;